sensor_id;sensor_type;location;lat;lon;timestamp;P1;durP1;ratioP1;P2;durP2;ratioP2
16612;SDS011;8419;52.358;9.752;2022-07-29T00:00:30;2.80;;;0.80;;
16612;SDS011;8419;52.358;9.752;2022-07-29T00:03:15;2.62;;;1.10;;
16612;SDS011;8419;52.358;9.752;2022-07-29T00:06:01;2.83;;;1.10;;
16612;SDS011;8419;52.358;9.752;2022-07-29T00:08:46;2.45;;;1.15;;
16612;SDS011;8419;52.358;9.752;2022-07-29T00:11:32;4.40;;;1.10;;
16612;SDS011;8419;52.358;9.752;2022-07-29T00:14:17;2.15;;;1.02;;
16612;SDS011;8419;52.358;9.752;2022-07-29T00:17:03;1.35;;;0.85;;
16612;SDS011;8419;52.358;9.752;2022-07-29T00:19:48;2.30;;;1.12;;
16612;SDS011;8419;52.358;9.752;2022-07-29T00:22:34;5.15;;;1.08;;
16612;SDS011;8419;52.358;9.752;2022-07-29T00:25:23;1.92;;;0.98;;
16612;SDS011;8419;52.358;9.752;2022-07-29T00:28:08;2.47;;;1.00;;
16612;SDS011;8419;52.358;9.752;2022-07-29T00:30:53;3.90;;;1.20;;
16612;SDS011;8419;52.358;9.752;2022-07-29T00:33:39;5.22;;;0.95;;
16612;SDS011;8419;52.358;9.752;2022-07-29T00:36:24;3.22;;;0.90;;
16612;SDS011;8419;52.358;9.752;2022-07-29T00:39:09;4.18;;;1.25;;
16612;SDS011;8419;52.358;9.752;2022-07-29T00:41:54;1.02;;;0.80;;
16612;SDS011;8419;52.358;9.752;2022-07-29T00:44:40;2.87;;;0.90;;
16612;SDS011;8419;52.358;9.752;2022-07-29T00:47:26;1.30;;;1.00;;
16612;SDS011;8419;52.358;9.752;2022-07-29T00:50:12;2.05;;;1.10;;
16612;SDS011;8419;52.358;9.752;2022-07-29T00:52:58;3.22;;;1.08;;
16612;SDS011;8419;52.358;9.752;2022-07-29T00:55:44;8.73;;;0.90;;
16612;SDS011;8419;52.358;9.752;2022-07-29T00:58:29;5.28;;;1.25;;
16612;SDS011;8419;52.358;9.752;2022-07-29T01:01:15;4.90;;;1.98;;
16612;SDS011;8419;52.358;9.752;2022-07-29T01:04:01;2.35;;;1.00;;
16612;SDS011;8419;52.358;9.752;2022-07-29T01:06:47;4.43;;;0.95;;
16612;SDS011;8419;52.358;9.752;2022-07-29T01:09:33;3.95;;;1.00;;
16612;SDS011;8419;52.358;9.752;2022-07-29T01:12:21;3.50;;;1.10;;
16612;SDS011;8419;52.358;9.752;2022-07-29T01:15:10;1.92;;;0.80;;
16612;SDS011;8419;52.358;9.752;2022-07-29T01:17:59;2.03;;;0.73;;
16612;SDS011;8419;52.358;9.752;2022-07-29T01:21:07;5.78;;;0.90;;
16612;SDS011;8419;52.358;9.752;2022-07-29T01:24:16;2.03;;;1.12;;
16612;SDS011;8419;52.358;9.752;2022-07-29T01:27:19;2.60;;;0.90;;
16612;SDS011;8419;52.358;9.752;2022-07-29T01:30:22;1.52;;;0.82;;
16612;SDS011;8419;52.358;9.752;2022-07-29T01:33:13;2.47;;;0.82;;
16612;SDS011;8419;52.358;9.752;2022-07-29T01:36:22;2.92;;;0.90;;
16612;SDS011;8419;52.358;9.752;2022-07-29T01:39:12;2.42;;;0.93;;
16612;SDS011;8419;52.358;9.752;2022-07-29T01:42:05;1.40;;;0.90;;
16612;SDS011;8419;52.358;9.752;2022-07-29T01:44:57;5.72;;;1.35;;
16612;SDS011;8419;52.358;9.752;2022-07-29T01:47:49;2.47;;;0.90;;
16612;SDS011;8419;52.358;9.752;2022-07-29T01:50:42;3.55;;;1.10;;
16612;SDS011;8419;52.358;9.752;2022-07-29T01:53:33;1.80;;;1.12;;
16612;SDS011;8419;52.358;9.752;2022-07-29T01:56:21;2.97;;;0.90;;
16612;SDS011;8419;52.358;9.752;2022-07-29T01:59:08;3.28;;;1.15;;
16612;SDS011;8419;52.358;9.752;2022-07-29T02:01:57;2.92;;;0.85;;
16612;SDS011;8419;52.358;9.752;2022-07-29T02:04:43;2.17;;;0.98;;
16612;SDS011;8419;52.358;9.752;2022-07-29T02:07:32;2.22;;;1.20;;
16612;SDS011;8419;52.358;9.752;2022-07-29T02:10:20;2.47;;;0.70;;
16612;SDS011;8419;52.358;9.752;2022-07-29T02:13:08;2.67;;;1.02;;
16612;SDS011;8419;52.358;9.752;2022-07-29T02:15:55;1.17;;;0.98;;
16612;SDS011;8419;52.358;9.752;2022-07-29T02:18:43;3.83;;;0.90;;
16612;SDS011;8419;52.358;9.752;2022-07-29T02:21:32;2.55;;;1.35;;
16612;SDS011;8419;52.358;9.752;2022-07-29T02:24:19;1.67;;;1.10;;
16612;SDS011;8419;52.358;9.752;2022-07-29T02:27:05;2.08;;;0.90;;
16612;SDS011;8419;52.358;9.752;2022-07-29T02:29:52;1.90;;;0.90;;
16612;SDS011;8419;52.358;9.752;2022-07-29T02:32:39;2.05;;;0.70;;
16612;SDS011;8419;52.358;9.752;2022-07-29T02:35:26;1.20;;;1.10;;
16612;SDS011;8419;52.358;9.752;2022-07-29T02:38:13;2.30;;;1.08;;
16612;SDS011;8419;52.358;9.752;2022-07-29T02:41:20;2.50;;;1.02;;
16612;SDS011;8419;52.358;9.752;2022-07-29T02:44:09;3.53;;;1.23;;
16612;SDS011;8419;52.358;9.752;2022-07-29T02:46:57;2.92;;;1.20;;
16612;SDS011;8419;52.358;9.752;2022-07-29T02:49:50;1.42;;;1.00;;
16612;SDS011;8419;52.358;9.752;2022-07-29T02:52:41;2.58;;;0.93;;
16612;SDS011;8419;52.358;9.752;2022-07-29T02:55:30;2.58;;;1.08;;
16612;SDS011;8419;52.358;9.752;2022-07-29T02:58:19;3.08;;;1.17;;
16612;SDS011;8419;52.358;9.752;2022-07-29T03:01:14;2.33;;;1.25;;
16612;SDS011;8419;52.358;9.752;2022-07-29T03:04:04;1.10;;;0.90;;
16612;SDS011;8419;52.358;9.752;2022-07-29T03:06:51;3.95;;;1.20;;
16612;SDS011;8419;52.358;9.752;2022-07-29T03:09:38;2.17;;;1.17;;
16612;SDS011;8419;52.358;9.752;2022-07-29T03:12:25;2.70;;;0.88;;
16612;SDS011;8419;52.358;9.752;2022-07-29T03:15:12;2.95;;;1.25;;
16612;SDS011;8419;52.358;9.752;2022-07-29T03:17:59;2.17;;;1.30;;
16612;SDS011;8419;52.358;9.752;2022-07-29T03:20:45;1.40;;;1.30;;
16612;SDS011;8419;52.358;9.752;2022-07-29T03:23:30;4.82;;;1.42;;
16612;SDS011;8419;52.358;9.752;2022-07-29T03:26:15;1.35;;;0.98;;
16612;SDS011;8419;52.358;9.752;2022-07-29T03:29:01;1.65;;;0.95;;
16612;SDS011;8419;52.358;9.752;2022-07-29T03:31:46;2.25;;;1.17;;
16612;SDS011;8419;52.358;9.752;2022-07-29T03:34:31;2.50;;;1.00;;
16612;SDS011;8419;52.358;9.752;2022-07-29T03:37:17;1.80;;;1.05;;
16612;SDS011;8419;52.358;9.752;2022-07-29T03:40:03;2.75;;;1.27;;
16612;SDS011;8419;52.358;9.752;2022-07-29T03:42:52;2.37;;;1.02;;
16612;SDS011;8419;52.358;9.752;2022-07-29T03:45:39;5.43;;;1.37;;
16612;SDS011;8419;52.358;9.752;2022-07-29T03:48:30;4.57;;;1.10;;
16612;SDS011;8419;52.358;9.752;2022-07-29T03:51:21;3.62;;;1.10;;
16612;SDS011;8419;52.358;9.752;2022-07-29T03:54:06;2.87;;;1.33;;
16612;SDS011;8419;52.358;9.752;2022-07-29T03:56:52;4.57;;;1.48;;
16612;SDS011;8419;52.358;9.752;2022-07-29T03:59:42;4.93;;;1.17;;
16612;SDS011;8419;52.358;9.752;2022-07-29T04:02:28;6.68;;;1.30;;
16612;SDS011;8419;52.358;9.752;2022-07-29T04:05:16;2.08;;;1.30;;
16612;SDS011;8419;52.358;9.752;2022-07-29T04:08:02;1.50;;;1.27;;
16612;SDS011;8419;52.358;9.752;2022-07-29T04:10:47;2.22;;;1.25;;
16612;SDS011;8419;52.358;9.752;2022-07-29T04:13:34;3.83;;;1.40;;
16612;SDS011;8419;52.358;9.752;2022-07-29T04:16:20;2.45;;;1.02;;
16612;SDS011;8419;52.358;9.752;2022-07-29T04:19:05;7.15;;;2.00;;
16612;SDS011;8419;52.358;9.752;2022-07-29T04:21:50;5.35;;;1.35;;
16612;SDS011;8419;52.358;9.752;2022-07-29T04:24:35;4.03;;;1.50;;
16612;SDS011;8419;52.358;9.752;2022-07-29T04:27:21;4.18;;;1.30;;
16612;SDS011;8419;52.358;9.752;2022-07-29T04:30:07;2.17;;;1.02;;
16612;SDS011;8419;52.358;9.752;2022-07-29T04:32:53;3.72;;;1.50;;
16612;SDS011;8419;52.358;9.752;2022-07-29T04:35:38;4.28;;;1.35;;
16612;SDS011;8419;52.358;9.752;2022-07-29T04:38:24;6.55;;;1.37;;
16612;SDS011;8419;52.358;9.752;2022-07-29T04:41:09;3.20;;;1.33;;
16612;SDS011;8419;52.358;9.752;2022-07-29T04:43:54;2.33;;;1.10;;
16612;SDS011;8419;52.358;9.752;2022-07-29T04:46:40;3.20;;;1.27;;
16612;SDS011;8419;52.358;9.752;2022-07-29T04:49:25;3.62;;;1.30;;
16612;SDS011;8419;52.358;9.752;2022-07-29T04:52:10;6.50;;;1.20;;
16612;SDS011;8419;52.358;9.752;2022-07-29T04:54:56;7.43;;;1.50;;
16612;SDS011;8419;52.358;9.752;2022-07-29T04:57:41;6.55;;;1.52;;
16612;SDS011;8419;52.358;9.752;2022-07-29T05:00:26;2.75;;;1.75;;
16612;SDS011;8419;52.358;9.752;2022-07-29T05:03:12;4.45;;;1.37;;
16612;SDS011;8419;52.358;9.752;2022-07-29T05:05:57;7.20;;;2.03;;
16612;SDS011;8419;52.358;9.752;2022-07-29T05:08:43;4.03;;;1.80;;
16612;SDS011;8419;52.358;9.752;2022-07-29T05:11:28;6.35;;;2.03;;
16612;SDS011;8419;52.358;9.752;2022-07-29T05:14:13;3.60;;;1.65;;
16612;SDS011;8419;52.358;9.752;2022-07-29T05:16:58;7.75;;;1.83;;
16612;SDS011;8419;52.358;9.752;2022-07-29T05:19:44;6.28;;;1.55;;
16612;SDS011;8419;52.358;9.752;2022-07-29T05:22:29;6.60;;;2.10;;
16612;SDS011;8419;52.358;9.752;2022-07-29T05:25:15;3.30;;;1.60;;
16612;SDS011;8419;52.358;9.752;2022-07-29T05:28:00;3.90;;;1.42;;
16612;SDS011;8419;52.358;9.752;2022-07-29T05:30:46;8.90;;;2.00;;
16612;SDS011;8419;52.358;9.752;2022-07-29T05:33:32;6.95;;;1.50;;
16612;SDS011;8419;52.358;9.752;2022-07-29T05:36:17;3.28;;;1.25;;
16612;SDS011;8419;52.358;9.752;2022-07-29T05:39:02;4.70;;;1.52;;
16612;SDS011;8419;52.358;9.752;2022-07-29T05:41:49;3.85;;;1.45;;
16612;SDS011;8419;52.358;9.752;2022-07-29T05:44:36;5.40;;;1.55;;
16612;SDS011;8419;52.358;9.752;2022-07-29T05:47:22;5.32;;;1.77;;
16612;SDS011;8419;52.358;9.752;2022-07-29T05:50:08;5.68;;;1.45;;
16612;SDS011;8419;52.358;9.752;2022-07-29T05:52:54;6.70;;;1.75;;
16612;SDS011;8419;52.358;9.752;2022-07-29T05:55:39;6.12;;;1.80;;
16612;SDS011;8419;52.358;9.752;2022-07-29T05:58:24;3.12;;;1.70;;
16612;SDS011;8419;52.358;9.752;2022-07-29T06:01:09;2.92;;;1.85;;
16612;SDS011;8419;52.358;9.752;2022-07-29T06:03:54;4.25;;;2.75;;
16612;SDS011;8419;52.358;9.752;2022-07-29T06:06:40;7.28;;;2.67;;
16612;SDS011;8419;52.358;9.752;2022-07-29T06:09:25;4.47;;;2.55;;
16612;SDS011;8419;52.358;9.752;2022-07-29T06:12:10;6.53;;;2.33;;
16612;SDS011;8419;52.358;9.752;2022-07-29T06:14:56;4.20;;;2.17;;
16612;SDS011;8419;52.358;9.752;2022-07-29T06:17:42;3.10;;;1.85;;
16612;SDS011;8419;52.358;9.752;2022-07-29T06:20:28;3.60;;;1.87;;
16612;SDS011;8419;52.358;9.752;2022-07-29T06:23:14;13.20;;;2.17;;
16612;SDS011;8419;52.358;9.752;2022-07-29T06:25:59;4.07;;;2.90;;
16612;SDS011;8419;52.358;9.752;2022-07-29T06:28:45;10.20;;;2.08;;
16612;SDS011;8419;52.358;9.752;2022-07-29T06:31:30;8.95;;;1.83;;
16612;SDS011;8419;52.358;9.752;2022-07-29T06:34:15;3.05;;;1.65;;
16612;SDS011;8419;52.358;9.752;2022-07-29T06:37:01;6.93;;;1.90;;
16612;SDS011;8419;52.358;9.752;2022-07-29T06:39:50;7.30;;;1.87;;
16612;SDS011;8419;52.358;9.752;2022-07-29T06:43:44;7.20;;;2.65;;
16612;SDS011;8419;52.358;9.752;2022-07-29T06:46:30;2.80;;;1.87;;
16612;SDS011;8419;52.358;9.752;2022-07-29T06:49:16;7.62;;;1.90;;
16612;SDS011;8419;52.358;9.752;2022-07-29T06:52:01;2.90;;;1.83;;
16612;SDS011;8419;52.358;9.752;2022-07-29T06:54:46;8.43;;;2.20;;
16612;SDS011;8419;52.358;9.752;2022-07-29T06:57:32;2.65;;;1.60;;
16612;SDS011;8419;52.358;9.752;2022-07-29T07:00:18;6.72;;;2.10;;
16612;SDS011;8419;52.358;9.752;2022-07-29T07:03:03;4.07;;;1.95;;
16612;SDS011;8419;52.358;9.752;2022-07-29T07:05:49;4.60;;;2.20;;
16612;SDS011;8419;52.358;9.752;2022-07-29T07:08:36;6.53;;;1.98;;
16612;SDS011;8419;52.358;9.752;2022-07-29T07:11:21;2.50;;;1.40;;
16612;SDS011;8419;52.358;9.752;2022-07-29T07:14:06;3.33;;;1.70;;
16612;SDS011;8419;52.358;9.752;2022-07-29T07:16:52;8.82;;;2.15;;
16612;SDS011;8419;52.358;9.752;2022-07-29T07:19:37;4.53;;;1.58;;
16612;SDS011;8419;52.358;9.752;2022-07-29T07:22:22;4.62;;;2.28;;
16612;SDS011;8419;52.358;9.752;2022-07-29T07:25:08;4.78;;;2.22;;
16612;SDS011;8419;52.358;9.752;2022-07-29T07:27:55;6.47;;;2.10;;
16612;SDS011;8419;52.358;9.752;2022-07-29T07:30:40;5.55;;;1.85;;
16612;SDS011;8419;52.358;9.752;2022-07-29T07:33:26;6.43;;;1.92;;
16612;SDS011;8419;52.358;9.752;2022-07-29T07:36:12;5.45;;;2.17;;
16612;SDS011;8419;52.358;9.752;2022-07-29T07:38:57;3.87;;;1.62;;
16612;SDS011;8419;52.358;9.752;2022-07-29T07:41:43;2.28;;;1.20;;
16612;SDS011;8419;52.358;9.752;2022-07-29T07:44:28;8.85;;;1.87;;
16612;SDS011;8419;52.358;9.752;2022-07-29T07:47:16;4.37;;;1.65;;
16612;SDS011;8419;52.358;9.752;2022-07-29T07:50:05;3.78;;;1.90;;
16612;SDS011;8419;52.358;9.752;2022-07-29T07:52:53;3.28;;;1.70;;
16612;SDS011;8419;52.358;9.752;2022-07-29T07:55:42;3.72;;;1.90;;
16612;SDS011;8419;52.358;9.752;2022-07-29T07:58:28;6.87;;;2.50;;
16612;SDS011;8419;52.358;9.752;2022-07-29T08:01:13;13.05;;;2.65;;
16612;SDS011;8419;52.358;9.752;2022-07-29T08:04:01;3.62;;;2.17;;
16612;SDS011;8419;52.358;9.752;2022-07-29T08:06:46;2.97;;;2.62;;
16612;SDS011;8419;52.358;9.752;2022-07-29T08:09:33;4.25;;;1.80;;
16612;SDS011;8419;52.358;9.752;2022-07-29T08:12:19;3.15;;;1.75;;
16612;SDS011;8419;52.358;9.752;2022-07-29T08:15:06;3.75;;;1.90;;
16612;SDS011;8419;52.358;9.752;2022-07-29T08:17:53;4.07;;;1.48;;
16612;SDS011;8419;52.358;9.752;2022-07-29T08:20:39;3.97;;;1.52;;
16612;SDS011;8419;52.358;9.752;2022-07-29T08:23:24;6.12;;;3.05;;
16612;SDS011;8419;52.358;9.752;2022-07-29T08:26:11;10.23;;;2.20;;
16612;SDS011;8419;52.358;9.752;2022-07-29T08:28:57;8.82;;;2.10;;
16612;SDS011;8419;52.358;9.752;2022-07-29T08:31:42;4.50;;;1.80;;
16612;SDS011;8419;52.358;9.752;2022-07-29T08:34:29;5.57;;;2.25;;
16612;SDS011;8419;52.358;9.752;2022-07-29T08:37:15;8.82;;;1.92;;
16612;SDS011;8419;52.358;9.752;2022-07-29T08:40:00;3.45;;;2.30;;
16612;SDS011;8419;52.358;9.752;2022-07-29T08:42:46;4.18;;;2.25;;
16612;SDS011;8419;52.358;9.752;2022-07-29T08:45:33;10.10;;;2.50;;
16612;SDS011;8419;52.358;9.752;2022-07-29T08:48:26;7.55;;;1.87;;
16612;SDS011;8419;52.358;9.752;2022-07-29T08:51:13;4.90;;;2.22;;
16612;SDS011;8419;52.358;9.752;2022-07-29T08:54:00;4.95;;;2.58;;
16612;SDS011;8419;52.358;9.752;2022-07-29T08:56:48;5.82;;;2.08;;
16612;SDS011;8419;52.358;9.752;2022-07-29T08:59:35;4.30;;;2.33;;
16612;SDS011;8419;52.358;9.752;2022-07-29T09:02:24;3.00;;;1.98;;
16612;SDS011;8419;52.358;9.752;2022-07-29T09:05:13;7.65;;;2.47;;
16612;SDS011;8419;52.358;9.752;2022-07-29T09:07:59;7.15;;;2.47;;
16612;SDS011;8419;52.358;9.752;2022-07-29T09:10:46;9.38;;;2.35;;
16612;SDS011;8419;52.358;9.752;2022-07-29T09:13:32;4.72;;;2.25;;
16612;SDS011;8419;52.358;9.752;2022-07-29T09:16:17;5.85;;;2.25;;
16612;SDS011;8419;52.358;9.752;2022-07-29T09:19:03;6.05;;;1.73;;
16612;SDS011;8419;52.358;9.752;2022-07-29T09:22:05;3.95;;;2.33;;
16612;SDS011;8419;52.358;9.752;2022-07-29T09:24:51;6.20;;;2.22;;
16612;SDS011;8419;52.358;9.752;2022-07-29T09:27:38;4.43;;;2.25;;
16612;SDS011;8419;52.358;9.752;2022-07-29T09:30:24;5.28;;;1.83;;
16612;SDS011;8419;52.358;9.752;2022-07-29T09:33:10;8.10;;;2.00;;
16612;SDS011;8419;52.358;9.752;2022-07-29T09:35:59;7.47;;;1.77;;
16612;SDS011;8419;52.358;9.752;2022-07-29T09:38:47;5.62;;;2.05;;
16612;SDS011;8419;52.358;9.752;2022-07-29T09:41:47;2.12;;;1.87;;
16612;SDS011;8419;52.358;9.752;2022-07-29T09:44:44;3.42;;;1.95;;
16612;SDS011;8419;52.358;9.752;2022-07-29T09:47:40;6.32;;;2.28;;
16612;SDS011;8419;52.358;9.752;2022-07-29T09:50:36;4.18;;;2.20;;
16612;SDS011;8419;52.358;9.752;2022-07-29T09:53:32;7.22;;;2.03;;
16612;SDS011;8419;52.358;9.752;2022-07-29T09:56:18;7.43;;;2.85;;
16612;SDS011;8419;52.358;9.752;2022-07-29T09:59:05;5.18;;;2.40;;
16612;SDS011;8419;52.358;9.752;2022-07-29T10:01:51;5.45;;;2.12;;
16612;SDS011;8419;52.358;9.752;2022-07-29T10:04:38;9.27;;;2.60;;
16612;SDS011;8419;52.358;9.752;2022-07-29T10:07:24;3.30;;;1.83;;
16612;SDS011;8419;52.358;9.752;2022-07-29T10:10:09;4.53;;;2.22;;
16612;SDS011;8419;52.358;9.752;2022-07-29T10:13:04;7.30;;;2.58;;
16612;SDS011;8419;52.358;9.752;2022-07-29T10:15:51;5.80;;;2.20;;
16612;SDS011;8419;52.358;9.752;2022-07-29T10:18:38;6.07;;;1.90;;
16612;SDS011;8419;52.358;9.752;2022-07-29T10:21:24;2.65;;;1.98;;
16612;SDS011;8419;52.358;9.752;2022-07-29T10:24:10;3.33;;;1.73;;
16612;SDS011;8419;52.358;9.752;2022-07-29T10:26:56;5.70;;;2.15;;
16612;SDS011;8419;52.358;9.752;2022-07-29T10:29:43;8.07;;;2.12;;
16612;SDS011;8419;52.358;9.752;2022-07-29T10:32:37;7.35;;;2.12;;
16612;SDS011;8419;52.358;9.752;2022-07-29T10:35:40;4.00;;;2.00;;
16612;SDS011;8419;52.358;9.752;2022-07-29T10:38:43;6.20;;;2.30;;
16612;SDS011;8419;52.358;9.752;2022-07-29T10:41:47;3.47;;;1.80;;
16612;SDS011;8419;52.358;9.752;2022-07-29T10:44:44;4.97;;;2.20;;
16612;SDS011;8419;52.358;9.752;2022-07-29T10:47:30;9.95;;;2.30;;
16612;SDS011;8419;52.358;9.752;2022-07-29T10:50:16;9.88;;;2.45;;
16612;SDS011;8419;52.358;9.752;2022-07-29T10:53:01;5.97;;;2.20;;
16612;SDS011;8419;52.358;9.752;2022-07-29T10:55:47;6.53;;;2.10;;
16612;SDS011;8419;52.358;9.752;2022-07-29T10:58:34;4.35;;;2.08;;
16612;SDS011;8419;52.358;9.752;2022-07-29T11:01:28;5.53;;;1.90;;
16612;SDS011;8419;52.358;9.752;2022-07-29T11:04:15;4.12;;;2.10;;
16612;SDS011;8419;52.358;9.752;2022-07-29T11:07:10;6.32;;;2.25;;
16612;SDS011;8419;52.358;9.752;2022-07-29T11:13:07;4.20;;;2.15;;
16612;SDS011;8419;52.358;9.752;2022-07-29T11:15:53;5.90;;;2.03;;
16612;SDS011;8419;52.358;9.752;2022-07-29T11:22:02;3.20;;;2.12;;
16612;SDS011;8419;52.358;9.752;2022-07-29T11:25:03;8.20;;;2.65;;
16612;SDS011;8419;52.358;9.752;2022-07-29T11:28:09;5.47;;;1.90;;
16612;SDS011;8419;52.358;9.752;2022-07-29T11:31:00;9.00;;;2.67;;
16612;SDS011;8419;52.358;9.752;2022-07-29T11:33:47;5.00;;;2.12;;
16612;SDS011;8419;52.358;9.752;2022-07-29T11:36:32;7.90;;;2.33;;
16612;SDS011;8419;52.358;9.752;2022-07-29T11:39:27;5.53;;;2.28;;
16612;SDS011;8419;52.358;9.752;2022-07-29T11:45:44;5.20;;;2.28;;
16612;SDS011;8419;52.358;9.752;2022-07-29T11:48:31;4.10;;;2.00;;
16612;SDS011;8419;52.358;9.752;2022-07-29T11:51:17;5.72;;;1.92;;
16612;SDS011;8419;52.358;9.752;2022-07-29T11:54:02;5.82;;;1.73;;
16612;SDS011;8419;52.358;9.752;2022-07-29T11:56:49;3.85;;;2.33;;
16612;SDS011;8419;52.358;9.752;2022-07-29T11:59:39;8.27;;;2.00;;
16612;SDS011;8419;52.358;9.752;2022-07-29T12:02:26;5.22;;;2.20;;
16612;SDS011;8419;52.358;9.752;2022-07-29T12:05:31;8.10;;;2.10;;
16612;SDS011;8419;52.358;9.752;2022-07-29T12:08:24;2.25;;;1.90;;
16612;SDS011;8419;52.358;9.752;2022-07-29T12:11:15;7.50;;;2.12;;
16612;SDS011;8419;52.358;9.752;2022-07-29T12:14:02;3.37;;;2.05;;
16612;SDS011;8419;52.358;9.752;2022-07-29T12:16:48;4.37;;;2.33;;
16612;SDS011;8419;52.358;9.752;2022-07-29T12:19:42;3.35;;;1.70;;
16612;SDS011;8419;52.358;9.752;2022-07-29T12:22:28;3.40;;;1.85;;
16612;SDS011;8419;52.358;9.752;2022-07-29T12:25:15;5.07;;;2.08;;
16612;SDS011;8419;52.358;9.752;2022-07-29T12:28:05;3.40;;;1.70;;
16612;SDS011;8419;52.358;9.752;2022-07-29T12:30:55;6.75;;;1.80;;
16612;SDS011;8419;52.358;9.752;2022-07-29T12:33:40;2.92;;;1.90;;
16612;SDS011;8419;52.358;9.752;2022-07-29T12:36:27;4.30;;;1.80;;
16612;SDS011;8419;52.358;9.752;2022-07-29T12:39:14;3.90;;;2.05;;
16612;SDS011;8419;52.358;9.752;2022-07-29T12:42:10;3.42;;;2.15;;
16612;SDS011;8419;52.358;9.752;2022-07-29T12:44:57;5.45;;;2.80;;
16612;SDS011;8419;52.358;9.752;2022-07-29T12:47:52;4.62;;;2.35;;
16612;SDS011;8419;52.358;9.752;2022-07-29T12:50:52;6.03;;;2.20;;
16612;SDS011;8419;52.358;9.752;2022-07-29T12:53:40;6.60;;;2.20;;
16612;SDS011;8419;52.358;9.752;2022-07-29T12:56:45;3.72;;;2.17;;
16612;SDS011;8419;52.358;9.752;2022-07-29T12:59:41;5.40;;;1.92;;
16612;SDS011;8419;52.358;9.752;2022-07-29T13:02:27;3.47;;;1.92;;
16612;SDS011;8419;52.358;9.752;2022-07-29T13:05:13;5.68;;;2.20;;
16612;SDS011;8419;52.358;9.752;2022-07-29T13:08:09;10.35;;;2.10;;
16612;SDS011;8419;52.358;9.752;2022-07-29T13:10:57;6.87;;;2.40;;
16612;SDS011;8419;52.358;9.752;2022-07-29T13:13:50;8.23;;;2.85;;
16612;SDS011;8419;52.358;9.752;2022-07-29T13:16:36;8.00;;;2.40;;
16612;SDS011;8419;52.358;9.752;2022-07-29T13:19:44;5.30;;;2.42;;
16612;SDS011;8419;52.358;9.752;2022-07-29T13:22:30;6.55;;;2.40;;
16612;SDS011;8419;52.358;9.752;2022-07-29T13:25:23;3.83;;;2.03;;
16612;SDS011;8419;52.358;9.752;2022-07-29T13:28:10;6.37;;;2.03;;
16612;SDS011;8419;52.358;9.752;2022-07-29T13:30:56;6.87;;;2.33;;
16612;SDS011;8419;52.358;9.752;2022-07-29T13:33:41;7.03;;;2.50;;
16612;SDS011;8419;52.358;9.752;2022-07-29T13:36:26;6.03;;;2.87;;
16612;SDS011;8419;52.358;9.752;2022-07-29T13:39:12;6.30;;;2.33;;
16612;SDS011;8419;52.358;9.752;2022-07-29T13:41:57;4.15;;;2.10;;
16612;SDS011;8419;52.358;9.752;2022-07-29T13:44:43;8.07;;;2.25;;
16612;SDS011;8419;52.358;9.752;2022-07-29T13:47:28;3.58;;;2.10;;
16612;SDS011;8419;52.358;9.752;2022-07-29T13:50:16;8.05;;;2.33;;
16612;SDS011;8419;52.358;9.752;2022-07-29T13:53:01;11.30;;;2.70;;
16612;SDS011;8419;52.358;9.752;2022-07-29T13:55:46;10.68;;;2.97;;
16612;SDS011;8419;52.358;9.752;2022-07-29T13:58:31;6.62;;;2.55;;
16612;SDS011;8419;52.358;9.752;2022-07-29T14:01:17;6.60;;;2.75;;
16612;SDS011;8419;52.358;9.752;2022-07-29T14:04:03;3.03;;;2.15;;
16612;SDS011;8419;52.358;9.752;2022-07-29T14:06:48;7.32;;;2.40;;
16612;SDS011;8419;52.358;9.752;2022-07-29T14:09:34;5.30;;;2.45;;
16612;SDS011;8419;52.358;9.752;2022-07-29T14:12:19;8.00;;;3.22;;
16612;SDS011;8419;52.358;9.752;2022-07-29T14:15:05;10.98;;;2.90;;
16612;SDS011;8419;52.358;9.752;2022-07-29T14:17:52;4.40;;;2.33;;
16612;SDS011;8419;52.358;9.752;2022-07-29T14:20:37;5.05;;;2.62;;
16612;SDS011;8419;52.358;9.752;2022-07-29T14:23:23;9.38;;;2.87;;
16612;SDS011;8419;52.358;9.752;2022-07-29T14:26:08;4.28;;;2.20;;
16612;SDS011;8419;52.358;9.752;2022-07-29T14:28:54;12.07;;;2.67;;
16612;SDS011;8419;52.358;9.752;2022-07-29T14:31:39;6.72;;;2.80;;
16612;SDS011;8419;52.358;9.752;2022-07-29T14:34:25;5.43;;;2.28;;
16612;SDS011;8419;52.358;9.752;2022-07-29T14:37:10;5.25;;;2.28;;
16612;SDS011;8419;52.358;9.752;2022-07-29T14:39:55;3.30;;;2.47;;
16612;SDS011;8419;52.358;9.752;2022-07-29T14:42:43;3.60;;;2.20;;
16612;SDS011;8419;52.358;9.752;2022-07-29T14:45:28;7.62;;;3.25;;
16612;SDS011;8419;52.358;9.752;2022-07-29T14:48:14;7.32;;;2.60;;
16612;SDS011;8419;52.358;9.752;2022-07-29T14:50:59;4.18;;;2.42;;
16612;SDS011;8419;52.358;9.752;2022-07-29T14:53:44;4.65;;;2.67;;
16612;SDS011;8419;52.358;9.752;2022-07-29T14:56:30;15.35;;;3.45;;
16612;SDS011;8419;52.358;9.752;2022-07-29T14:59:16;4.50;;;2.50;;
16612;SDS011;8419;52.358;9.752;2022-07-29T15:02:01;12.23;;;3.00;;
16612;SDS011;8419;52.358;9.752;2022-07-29T15:04:47;8.93;;;2.62;;
16612;SDS011;8419;52.358;9.752;2022-07-29T15:07:33;11.52;;;2.72;;
16612;SDS011;8419;52.358;9.752;2022-07-29T15:10:18;4.45;;;2.40;;
16612;SDS011;8419;52.358;9.752;2022-07-29T15:13:04;7.20;;;2.40;;
16612;SDS011;8419;52.358;9.752;2022-07-29T15:15:49;4.72;;;2.50;;
16612;SDS011;8419;52.358;9.752;2022-07-29T15:18:35;3.83;;;1.95;;
16612;SDS011;8419;52.358;9.752;2022-07-29T15:21:22;3.40;;;2.20;;
16612;SDS011;8419;52.358;9.752;2022-07-29T15:24:07;5.05;;;2.58;;
16612;SDS011;8419;52.358;9.752;2022-07-29T15:26:53;6.80;;;2.72;;
16612;SDS011;8419;52.358;9.752;2022-07-29T15:29:38;5.68;;;2.37;;
16612;SDS011;8419;52.358;9.752;2022-07-29T15:32:24;5.40;;;2.50;;
16612;SDS011;8419;52.358;9.752;2022-07-29T15:35:10;4.93;;;2.00;;
16612;SDS011;8419;52.358;9.752;2022-07-29T15:37:55;5.75;;;2.47;;
16612;SDS011;8419;52.358;9.752;2022-07-29T15:40:40;2.58;;;2.22;;
16612;SDS011;8419;52.358;9.752;2022-07-29T15:43:27;4.35;;;2.78;;
16612;SDS011;8419;52.358;9.752;2022-07-29T15:46:13;5.68;;;2.50;;
16612;SDS011;8419;52.358;9.752;2022-07-29T15:49:19;4.70;;;2.50;;
16612;SDS011;8419;52.358;9.752;2022-07-29T15:52:06;4.72;;;2.30;;
16612;SDS011;8419;52.358;9.752;2022-07-29T15:54:53;5.97;;;2.55;;
16612;SDS011;8419;52.358;9.752;2022-07-29T15:57:39;3.47;;;2.15;;
16612;SDS011;8419;52.358;9.752;2022-07-29T16:00:25;9.90;;;5.20;;
16612;SDS011;8419;52.358;9.752;2022-07-29T16:03:11;5.85;;;2.33;;
16612;SDS011;8419;52.358;9.752;2022-07-29T16:05:57;3.83;;;2.30;;
16612;SDS011;8419;52.358;9.752;2022-07-29T16:08:42;4.50;;;2.42;;
16612;SDS011;8419;52.358;9.752;2022-07-29T16:11:27;7.50;;;3.03;;
16612;SDS011;8419;52.358;9.752;2022-07-29T16:14:13;3.70;;;2.25;;
16612;SDS011;8419;52.358;9.752;2022-07-29T16:16:59;5.03;;;2.45;;
16612;SDS011;8419;52.358;9.752;2022-07-29T16:19:46;5.28;;;2.12;;
16612;SDS011;8419;52.358;9.752;2022-07-29T16:22:32;4.75;;;2.15;;
16612;SDS011;8419;52.358;9.752;2022-07-29T16:25:17;6.00;;;2.62;;
16612;SDS011;8419;52.358;9.752;2022-07-29T16:28:04;3.40;;;2.45;;
16612;SDS011;8419;52.358;9.752;2022-07-29T16:30:49;3.40;;;1.92;;
16612;SDS011;8419;52.358;9.752;2022-07-29T16:33:35;4.50;;;2.05;;
16612;SDS011;8419;52.358;9.752;2022-07-29T16:36:20;7.07;;;2.10;;
16612;SDS011;8419;52.358;9.752;2022-07-29T16:39:06;4.75;;;2.55;;
16612;SDS011;8419;52.358;9.752;2022-07-29T16:41:53;5.30;;;2.40;;
16612;SDS011;8419;52.358;9.752;2022-07-29T16:44:39;4.32;;;2.20;;
16612;SDS011;8419;52.358;9.752;2022-07-29T16:47:24;5.50;;;1.87;;
16612;SDS011;8419;52.358;9.752;2022-07-29T16:50:10;6.78;;;2.20;;
16612;SDS011;8419;52.358;9.752;2022-07-29T16:52:55;5.05;;;2.50;;
16612;SDS011;8419;52.358;9.752;2022-07-29T16:55:41;4.82;;;2.15;;
16612;SDS011;8419;52.358;9.752;2022-07-29T16:58:26;4.97;;;2.65;;
16612;SDS011;8419;52.358;9.752;2022-07-29T17:01:12;5.32;;;1.95;;
16612;SDS011;8419;52.358;9.752;2022-07-29T17:03:57;3.87;;;1.85;;
16612;SDS011;8419;52.358;9.752;2022-07-29T17:06:51;3.55;;;2.42;;
16612;SDS011;8419;52.358;9.752;2022-07-29T17:09:36;6.50;;;2.45;;
16612;SDS011;8419;52.358;9.752;2022-07-29T17:12:21;4.85;;;2.62;;
16612;SDS011;8419;52.358;9.752;2022-07-29T17:15:11;2.78;;;1.85;;